Time;durP1;ratioP1;P1;durP2;ratioP2;P2;SDS_P1;SDS_P2;PMS_P1;PMS_P2;Temp;Humidity;BMP_temperature;BMP_pressure;BME280_temperature;BME280_humidity;BME280_pressure;Samples;Min_cycle;Max_cycle;Signal;HPM_P1;HPM_P2
2024/04/26 00:00:52;;;;;;;19.65;7.65;;;6.60;99.90;;;;;;5490447;26;19998;-76
2024/04/26 00:03:17;;;;;;;12.50;6.13;;;6.60;99.90;;;;;;5490091;26;19998;-76
2024/04/26 00:05:46;;;;;;;13.55;5.70;;;6.80;99.90;;;;;;5458103;26;20009;-76
2024/04/26 00:08:14;;;;;;;13.38;5.60;;;6.60;99.90;;;;;;5489902;26;19998;-75
2024/04/26 00:10:40;;;;;;;14.68;6.35;;;6.70;99.90;;;;;;5489804;26;20330;-76
2024/04/26 00:13:06;;;;;;;13.25;5.68;;;6.60;99.90;;;;;;5489913;26;20005;-76
2024/04/26 00:15:31;;;;;;;15.30;6.35;;;6.60;99.90;;;;;;5457800;26;20001;-76
2024/04/26 00:17:57;;;;;;;13.20;6.20;;;6.60;99.90;;;;;;5457945;26;19998;-76
2024/04/26 00:20:22;;;;;;;15.40;6.32;;;6.60;99.90;;;;;;5490118;26;19994;-77
2024/04/26 00:22:48;;;;;;;11.40;5.75;;;6.60;99.90;;;;;;5457892;26;19991;-76
2024/04/26 00:25:14;;;;;;;15.52;6.65;;;6.60;99.90;;;;;;5457458;26;20071;-76
2024/04/26 00:27:40;;;;;;;15.05;6.38;;;6.60;99.90;;;;;;5457789;26;20453;-76
2024/04/26 00:30:06;;;;;;;13.45;6.28;;;6.60;99.90;;;;;;5489912;26;19998;-77
2024/04/26 00:32:32;;;;;;;13.93;5.63;;;6.60;99.90;;;;;;5457870;26;19994;-77
2024/04/26 00:34:58;;;;;;;12.52;5.60;;;6.60;99.90;;;;;;5457411;26;20468;-75
2024/04/26 00:37:23;;;;;;;12.20;5.15;;;6.60;99.90;;;;;;5457290;26;19995;-76
2024/04/26 00:39:49;;;;;;;21.27;6.05;;;6.50;99.90;;;;;;5457672;26;20039;-76
2024/04/26 00:42:15;;;;;;;14.00;5.35;;;6.60;99.90;;;;;;5489789;26;20333;-76
2024/04/26 00:44:41;;;;;;;16.40;5.20;;;7.40;99.90;;;;;;5489226;26;20022;-76
2024/04/26 00:47:07;;;;;;;15.70;4.95;;;6.50;99.90;;;;;;5457310;26;19998;-76
2024/04/26 00:49:35;;;;;;;12.93;4.82;;;6.50;99.90;;;;;;5489186;26;20009;-76
2024/04/26 00:52:02;;;;;;;12.95;4.60;;;7.20;99.90;;;;;;5460779;26;19998;-76
2024/04/26 00:54:31;;;;;;;13.40;5.63;;;6.50;99.90;;;;;;5460672;26;20037;-75
2024/04/26 00:57:00;;;;;;;9.60;4.57;;;6.40;99.90;;;;;;5460955;26;20005;-77
2024/04/26 00:59:28;;;;;;;10.57;4.57;;;6.40;99.90;;;;;;5493157;26;20326;-77
2024/04/26 01:01:54;;;;;;;14.60;4.57;;;;;;;;;;5493297;26;20009;-78
2024/04/26 01:04:20;;;;;;;10.50;4.50;;;6.40;99.90;;;;;;5493118;26;20006;-76
2024/04/26 01:06:46;;;;;;;10.50;3.90;;;6.30;99.90;;;;;;5493211;26;19998;-78
2024/04/26 01:09:11;;;;;;;11.93;4.43;;;6.80;99.90;;;;;;5493086;26;20477;-77
2024/04/26 01:11:37;;;;;;;11.15;5.03;;;6.90;99.90;;;;;;5492891;26;20044;-77
2024/04/26 01:14:03;;;;;;;12.27;4.47;;;6.30;99.90;;;;;;5493315;26;20009;-77
2024/04/26 01:16:29;;;;;;;10.00;4.88;;;6.40;99.90;;;;;;5493263;26;19998;-77
2024/04/26 01:18:55;;;;;;;12.55;5.03;;;6.30;99.90;;;;;;5493038;26;19998;-77
2024/04/26 01:21:22;;;;;;;15.48;4.75;;;6.30;99.90;;;;;;5492925;26;20365;-76
2024/04/26 01:23:47;;;;;;;10.82;5.13;;;6.30;99.90;;;;;;5492671;26;20006;-75
2024/04/26 01:26:13;;;;;;;12.25;4.65;;;6.40;99.90;;;;;;5460259;26;19994;-77
2024/04/26 01:28:39;;;;;;;10.60;4.88;;;6.30;99.90;;;;;;5492622;26;20002;-76
2024/04/26 01:31:05;;;;;;;16.67;5.68;;;6.30;99.90;;;;;;5492900;26;19998;-76
2024/04/26 01:33:30;;;;;;;11.55;4.53;;;6.30;99.90;;;;;;5492530;26;19995;-76
2024/04/26 01:35:56;;;;;;;12.27;5.55;;;7.20;99.90;;;;;;5492944;26;20006;-76
2024/04/26 01:38:21;;;;;;;14.15;5.03;;;6.40;99.90;;;;;;5460763;26;20004;-76
2024/04/26 01:40:47;;;;;;;17.00;6.60;;;6.30;99.90;;;;;;5460953;26;20033;-75
2024/04/26 01:43:13;;;;;;;11.07;4.65;;;6.30;99.90;;;;;;5493034;26;20468;-76
2024/04/26 01:45:38;;;;;;;13.02;5.15;;;6.40;99.90;;;;;;5492310;26;20012;-76
2024/04/26 01:48:04;;;;;;;11.82;4.88;;;7.30;99.90;;;;;;5492626;26;20001;-78
2024/04/26 01:50:30;;;;;;;14.13;5.88;;;6.30;99.90;;;;;;5460277;26;20035;-77
2024/04/26 01:52:56;;;;;;;13.70;6.25;;;6.40;99.90;;;;;;5492643;26;20337;-77
2024/04/26 01:55:21;;;;;;;16.35;5.80;;;6.40;99.90;;;;;;5461738;26;20457;-78
2024/04/26 01:57:47;;;;;;;13.95;6.07;;;6.40;99.90;;;;;;5494564;26;20010;-78
2024/04/26 02:00:13;;;;;;;14.48;6.65;;;6.40;99.90;;;;;;5493230;26;19998;-78
2024/04/26 02:02:39;;;;;;;13.63;5.90;;;6.40;99.90;;;;;;5492929;26;20047;-78
2024/04/26 02:05:05;;;;;;;12.60;5.88;;;6.40;99.90;;;;;;5460921;26;19998;-78
2024/04/26 02:07:31;;;;;;;13.60;5.60;;;6.40;99.90;;;;;;5460692;26;20360;-78
2024/04/26 02:09:57;;;;;;;11.50;5.75;;;6.40;99.90;;;;;;5461361;26;20413;-76
2024/04/26 02:12:24;;;;;;;17.00;7.18;;;6.60;99.90;;;;;;5462250;26;20442;-76
2024/04/26 02:14:50;;;;;;;15.35;6.75;;;6.40;99.90;;;;;;5461625;26;19995;-78
2024/04/26 02:17:15;;;;;;;17.35;7.22;;;6.40;99.90;;;;;;5493849;26;20356;-78
2024/04/26 02:19:41;;;;;;;12.40;5.95;;;6.40;99.90;;;;;;5460714;26;20002;-77
2024/04/26 02:22:07;;;;;;;16.75;6.18;;;6.40;99.90;;;;;;5460802;26;20002;-77
2024/04/26 02:24:32;;;;;;;15.73;6.53;;;6.40;99.90;;;;;;5493964;26;20006;-78
2024/04/26 02:26:58;;;;;;;13.75;5.88;;;6.40;99.90;;;;;;5493357;26;20502;-77
2024/04/26 02:29:24;;;;;;;13.82;6.30;;;6.40;99.90;;;;;;5493435;26;19998;-78
2024/04/26 02:31:50;;;;;;;15.55;6.55;;;8.30;99.90;;;;;;5495041;26;20026;-77
2024/04/26 02:34:16;;;;;;;16.90;6.70;;;;;;;;;;5492031;26;19997;-76
2024/04/26 02:36:45;;;;;;;16.08;6.30;;;6.40;99.90;;;;;;5461380;26;19994;-77
2024/04/26 02:39:11;;;;;;;18.13;6.70;;;6.40;99.90;;;;;;5492209;26;20533;-76
2024/04/26 02:41:36;;;;;;;16.60;6.13;;;6.30;99.90;;;;;;5492326;26;20009;-76
2024/04/26 02:44:05;;;;;;;16.83;6.57;;;6.40;99.90;;;;;;5493304;26;20070;-77
2024/04/26 02:46:34;;;;;;;14.52;6.53;;;6.30;99.90;;;;;;5492980;26;20005;-76
2024/04/26 02:49:02;;;;;;;;;;;6.30;99.90;;;;;;5492104;26;20002;-76
2024/04/26 02:51:28;;;;;;;13.95;5.13;;;6.30;99.90;;;;;;5491892;26;19924;-76
2024/04/26 02:53:54;;;;;;;15.15;6.22;;;6.20;99.90;;;;;;5491891;26;20012;-77
2024/04/26 02:56:20;;;;;;;18.98;6.90;;;6.30;99.90;;;;;;5491901;26;20070;-78
2024/04/26 02:58:46;;;;;;;13.85;6.22;;;6.30;99.90;;;;;;5492212;26;20485;-77
2024/04/26 03:01:13;;;;;;;15.65;6.93;;;6.30;99.90;;;;;;5491435;26;20005;-77
2024/04/26 03:03:41;;;;;;;14.77;6.82;;;6.30;99.90;;;;;;5491816;26;19998;-77
2024/04/26 03:06:09;;;;;;;18.35;6.78;;;6.30;99.90;;;;;;5459243;26;20008;-77
2024/04/26 03:08:36;;;;;;;15.05;6.57;;;6.30;99.90;;;;;;5491381;26;20449;-77
2024/04/26 03:11:02;;;;;;;17.73;5.63;;;6.30;99.90;;;;;;5459868;26;20460;-77
2024/04/26 03:13:28;;;;;;;16.25;6.68;;;6.30;99.90;;;;;;5491310;26;19994;-78
2024/04/26 03:15:53;;;;;;;17.98;7.30;;;6.30;99.90;;;;;;5491929;26;20002;-77
2024/04/26 03:18:19;;;;;;;12.85;6.30;;;6.30;99.90;;;;;;5459421;26;19998;-79
2024/04/26 03:20:45;;;;;;;15.48;6.55;;;;;;;;;;5459248;26;20010;-77
2024/04/26 03:23:11;;;;;;;15.60;6.20;;;6.30;99.90;;;;;;5491622;26;20009;-77
2024/04/26 03:25:37;;;;;;;15.38;6.60;;;6.30;99.90;;;;;;5491658;26;20294;-78
2024/04/26 03:28:03;;;;;;;15.32;6.03;;;6.20;99.90;;;;;;5491227;26;19994;-78
2024/04/26 03:30:28;;;;;;;16.88;6.70;;;6.30;99.90;;;;;;5461159;26;19994;-78
2024/04/26 03:32:54;;;;;;;15.93;7.28;;;6.30;99.90;;;;;;5493768;26;20369;-78
2024/04/26 03:35:20;;;;;;;13.95;6.03;;;6.30;99.90;;;;;;5492537;26;20434;-78
2024/04/26 03:37:45;;;;;;;15.02;5.80;;;6.20;99.90;;;;;;5460983;26;20071;-81
2024/04/26 03:40:12;;;;;;;12.75;5.95;;;6.20;99.90;;;;;;5461970;26;19991;-78
2024/04/26 03:42:42;;;;;;;16.77;6.13;;;6.20;99.90;;;;;;5494032;26;19998;-78
2024/04/26 03:45:08;;;;;;;15.68;5.70;;;6.20;99.90;;;;;;5460904;26;20002;-78
2024/04/26 03:47:33;;;;;;;12.07;5.30;;;6.20;99.90;;;;;;5460522;26;20062;-77
2024/04/26 03:50:02;;;;;;;13.45;5.18;;;6.20;99.90;;;;;;5460401;26;20070;-78
2024/04/26 03:52:27;;;;;;;12.38;5.57;;;6.20;99.90;;;;;;5492955;26;20072;-78
2024/04/26 03:54:54;;;;;;;13.52;5.47;;;6.10;99.90;;;;;;5493032;26;19994;-78
2024/04/26 03:57:19;;;;;;;11.45;4.82;;;6.10;99.90;;;;;;5492612;26;20337;-78
2024/04/26 03:59:45;;;;;;;14.98;5.13;;;6.20;99.90;;;;;;5492493;26;19995;-78
2024/04/26 04:02:11;;;;;;;12.68;4.60;;;6.10;99.90;;;;;;5460425;26;19994;-78
2024/04/26 04:04:36;;;;;;;12.40;5.30;;;6.10;99.90;;;;;;5460419;26;19994;-78
2024/04/26 04:07:02;;;;;;;11.32;4.03;;;6.00;99.90;;;;;;5492376;26;20411;-79
2024/04/26 04:09:28;;;;;;;9.63;4.20;;;6.00;99.90;;;;;;5460647;26;19998;-78
2024/04/26 04:11:53;;;;;;;11.80;4.78;;;6.00;99.90;;;;;;5460523;26;20008;-78
2024/04/26 04:14:19;;;;;;;12.50;4.78;;;;;;;;;;5492866;26;20010;-78
2024/04/26 04:16:45;;;;;;;12.07;4.18;;;6.00;99.90;;;;;;5491079;26;19990;-78
2024/04/26 04:19:10;;;;;;;10.85;4.30;;;6.00;99.90;;;;;;5459864;26;20009;-78
2024/04/26 04:21:36;;;;;;;13.57;5.18;;;6.00;99.90;;;;;;5460309;26;19998;-79
2024/04/26 04:24:03;;;;;;;10.45;4.20;;;6.00;99.90;;;;;;5493228;26;19991;-78
2024/04/26 04:26:28;;;;;;;11.68;4.35;;;6.00;99.90;;;;;;5464278;26;20056;-79
2024/04/26 04:28:54;;;;;;;10.05;3.90;;;6.50;99.90;;;;;;5499810;26;19994;-80
2024/04/26 04:31:20;;;;;;;12.45;4.13;;;;;;;;;;5466812;26;19998;-79
2024/04/26 04:33:46;;;;;;;15.52;4.82;;;5.90;99.90;;;;;;5500054;26;20333;-79
2024/04/26 04:36:11;;;;;;;8.15;3.78;;;5.80;99.90;;;;;;5466792;26;20001;-79
2024/04/26 04:38:37;;;;;;;13.90;4.07;;;5.90;99.90;;;;;;5466631;26;20063;-79
2024/04/26 04:41:03;;;;;;;9.35;4.13;;;5.90;99.90;;;;;;5464807;26;20006;-79
2024/04/26 04:43:28;;;;;;;9.75;3.70;;;5.90;99.90;;;;;;5464463;26;20009;-78
2024/04/26 04:45:54;;;;;;;11.45;4.68;;;7.10;99.90;;;;;;5465559;26;20002;-79
2024/04/26 04:48:21;;;;;;;11.75;4.32;;;5.90;99.90;;;;;;5498261;26;19994;-79
2024/04/26 04:50:47;;;;;;;11.48;3.65;;;5.90;99.90;;;;;;5497844;26;20326;-79
2024/04/26 04:53:12;;;;;;;10.80;4.38;;;6.00;99.90;;;;;;5496858;26;20006;-79
2024/04/26 04:55:39;;;;;;;12.02;4.57;;;6.00;99.90;;;;;;5498244;26;20005;-79
2024/04/26 04:58:04;;;;;;;9.82;3.90;;;6.00;99.90;;;;;;5496726;26;20333;-79
2024/04/26 05:00:30;;;;;;;10.32;4.18;;;6.00;99.90;;;;;;5464928;26;20017;-79
2024/04/26 05:02:56;;;;;;;11.02;4.00;;;6.00;99.90;;;;;;5497334;26;20005;-79
2024/04/26 05:05:22;;;;;;;11.90;3.88;;;6.00;99.90;;;;;;5496884;26;20457;-79
2024/04/26 05:07:47;;;;;;;11.15;4.32;;;6.00;99.90;;;;;;5464929;26;20008;-79
2024/04/26 05:10:13;;;;;;;12.88;3.97;;;6.00;99.90;;;;;;5466242;26;19994;-79
2024/04/26 05:12:39;;;;;;;9.07;3.95;;;6.10;99.90;;;;;;5465481;26;20449;-79
2024/04/26 05:15:06;;;;;;;11.27;3.92;;;6.10;99.90;;;;;;5498319;26;19998;-79
2024/04/26 05:17:32;;;;;;;11.02;4.07;;;6.10;99.90;;;;;;5465638;26;19994;-79
2024/04/26 05:19:58;;;;;;;11.75;3.80;;;6.20;99.90;;;;;;5461450;26;20081;-78
2024/04/26 05:22:24;;;;;;;10.95;3.85;;;6.20;99.90;;;;;;5461130;26;20453;-77
2024/04/26 05:24:52;;;;;;;9.60;3.58;;;6.20;99.90;;;;;;5493624;26;20453;-78
2024/04/26 05:27:17;;;;;;;9.13;3.63;;;6.20;99.90;;;;;;5461230;26;20002;-78
2024/04/26 05:29:46;;;;;;;7.85;4.00;;;6.20;99.90;;;;;;5492866;26;19998;-78
2024/04/26 05:32:13;;;;;;;11.75;3.95;;;6.30;99.90;;;;;;5461935;26;19990;-78
2024/04/26 05:34:38;;;;;;;8.50;3.85;;;6.30;99.90;;;;;;5492941;26;20081;-78
2024/04/26 05:37:04;;;;;;;10.98;3.85;;;6.40;99.90;;;;;;5492763;26;20005;-78
2024/04/26 05:39:30;;;;;;;10.02;3.90;;;6.30;99.90;;;;;;5493351;26;19998;-78
2024/04/26 05:41:55;;;;;;;8.73;3.25;;;6.40;99.90;;;;;;5493559;26;20328;-78
2024/04/26 05:44:21;;;;;;;9.35;3.08;;;6.60;99.90;;;;;;5493556;26;19994;-78
2024/04/26 05:46:47;;;;;;;10.00;3.53;;;6.40;99.90;;;;;;5494023;26;19998;-78
2024/04/26 05:49:13;;;;;;;8.00;2.83;;;7.40;99.90;;;;;;5494722;26;19995;-78
2024/04/26 05:51:38;;;;;;;7.72;3.00;;;6.40;99.90;;;;;;5495195;26;20047;-78
2024/04/26 05:54:04;;;;;;;7.10;2.72;;;6.40;99.90;;;;;;5463667;26;20006;-78
2024/04/26 05:56:31;;;;;;;6.53;2.60;;;6.50;99.90;;;;;;5495202;26;19994;-78
2024/04/26 05:58:57;;;;;;;9.68;2.42;;;7.40;99.90;;;;;;5463912;26;19990;-78
2024/04/26 06:01:22;;;;;;;8.73;3.20;;;6.50;99.90;;;;;;5495975;26;20008;-78
2024/04/26 06:03:48;;;;;;;10.18;2.92;;;6.50;99.90;;;;;;5496552;26;20039;-78
2024/04/26 06:06:14;;;;;;;7.20;3.03;;;6.40;99.90;;;;;;5463904;26;20005;-78
2024/04/26 06:08:40;;;;;;;8.38;3.28;;;6.40;99.90;;;;;;5495492;26;20005;-78
2024/04/26 06:11:06;;;;;;;7.80;2.90;;;6.40;99.90;;;;;;5463063;26;20002;-78
2024/04/26 06:13:33;;;;;;;12.77;3.35;;;7.70;99.90;;;;;;5463503;26;19994;-78
2024/04/26 06:15:58;;;;;;;6.35;3.03;;;6.40;99.90;;;;;;5495325;26;20030;-78
2024/04/26 06:18:24;;;;;;;6.80;2.75;;;6.60;99.90;;;;;;5495213;26;20001;-78
2024/04/26 06:20:50;;;;;;;9.82;3.22;;;6.70;99.90;;;;;;5495377;26;19990;-78
2024/04/26 06:23:16;;;;;;;8.65;2.28;;;6.80;99.90;;;;;;5495050;26;20005;-77
2024/04/26 06:25:41;;;;;;;10.23;2.70;;;6.80;99.90;;;;;;5492028;26;20008;-77
2024/04/26 06:28:07;;;;;;;6.95;2.35;;;6.80;99.90;;;;;;5491788;26;20005;-78
2024/04/26 06:30:33;;;;;;;4.60;2.22;;;6.80;99.90;;;;;;5459566;26;20009;-78
2024/04/26 06:33:00;;;;;;;7.88;2.72;;;6.90;99.90;;;;;;5459901;26;19998;-77
2024/04/26 06:35:25;;;;;;;6.30;2.58;;;7.00;99.90;;;;;;5459255;26;19991;-77
2024/04/26 06:37:51;;;;;;;7.03;3.00;;;7.00;99.90;;;;;;5491463;26;20009;-78
2024/04/26 06:40:17;;;;;;;8.80;2.00;;;7.20;99.90;;;;;;5491764;26;20002;-78
2024/04/26 06:42:43;;;;;;;6.47;1.90;;;7.30;99.90;;;;;;5459143;26;20009;-78
2024/04/26 06:45:09;;;;;;;4.85;1.75;;;8.40;99.90;;;;;;5458985;26;20004;-77
2024/04/26 06:47:34;;;;;;;9.88;3.00;;;7.50;99.90;;;;;;5457286;26;20030;-77
2024/04/26 06:50:00;;;;;;;5.28;1.27;;;7.60;99.90;;;;;;5492019;26;19998;-77
2024/04/26 06:52:25;;;;;;;6.07;2.00;;;7.80;99.90;;;;;;5491402;26;20074;-77
2024/04/26 06:54:51;;;;;;;6.78;1.45;;;8.00;99.90;;;;;;5491301;26;19997;-77
2024/04/26 06:57:18;;;;;;;2.67;1.02;;;8.90;99.90;;;;;;5459058;26;20078;-77
2024/04/26 06:59:44;;;;;;;5.28;1.17;;;8.70;99.90;;;;;;5491484;26;20010;-77
2024/04/26 07:02:15;;;;;;;4.03;1.50;;;8.30;99.90;;;;;;5459043;26;19994;-77
2024/04/26 07:04:41;;;;;;;6.50;1.05;;;8.30;99.90;;;;;;5491230;26;19998;-77
2024/04/26 07:07:06;;;;;;;3.65;0.65;;;8.50;99.90;;;;;;5458879;26;20035;-77
2024/04/26 07:09:32;;;;;;;3.75;0.65;;;8.50;99.90;;;;;;5459237;26;20008;-78
2024/04/26 07:11:58;;;;;;;4.80;0.55;;;8.60;99.90;;;;;;5461841;26;20066;-78
2024/04/26 07:14:23;;;;;;;7.32;1.10;;;10.50;99.90;;;;;;5459165;26;20006;-77
2024/04/26 07:16:49;;;;;;;5.43;0.35;;;8.60;99.90;;;;;;5491237;26;19999;-78
2024/04/26 07:19:16;;;;;;;2.47;0.52;;;8.90;99.90;;;;;;5458951;26;20002;-78
2024/04/26 07:21:42;;;;;;;2.22;0.28;;;8.90;99.90;;;;;;5458969;26;20091;-78
2024/04/26 07:24:09;;;;;;;4.43;0.25;;;;;;;;;;5458773;26;20002;-78
2024/04/26 07:26:35;;;;;;;0.52;0.05;;;8.90;99.90;;;;;;5488917;26;20009;-78
2024/04/26 07:29:03;;;;;;;2.58;0.25;;;8.90;99.90;;;;;;5490849;26;20493;-78
2024/04/26 07:31:29;;;;;;;2.33;0.10;;;9.00;99.90;;;;;;5490838;26;20003;-78
2024/04/26 07:33:55;;;;;;;3.13;0.10;;;9.20;99.90;;;;;;5491130;26;19994;-78
2024/04/26 07:36:21;;;;;;;1.02;0.00;;;9.40;99.90;;;;;;5491745;26;19998;-78
2024/04/26 07:38:46;;;;;;;0.25;0.00;;;9.70;99.90;;;;;;5490891;26;20010;-78
2024/04/26 07:41:16;;;;;;;0.10;0.00;;;9.70;99.90;;;;;;5458799;26;19994;-78
2024/04/26 07:43:45;;;;;;;2.20;0.00;;;9.60;99.90;;;;;;5459169;26;20008;-78
2024/04/26 07:46:11;;;;;;;3.20;0.20;;;9.70;99.90;;;;;;5458797;26;20009;-78
2024/04/26 07:48:36;;;;;;;0.10;0.00;;;9.60;99.90;;;;;;5490821;26;19998;-78
2024/04/26 07:51:02;;;;;;;0.50;0.08;;;9.50;99.90;;;;;;5490776;26;20005;-78
2024/04/26 07:53:28;;;;;;;1.13;0.00;;;9.60;99.90;;;;;;5490601;26;20044;-78
2024/04/26 07:55:54;;;;;;;3.92;0.30;;;10.00;99.90;;;;;;5458789;26;19990;-78
2024/04/26 07:58:20;;;;;;;0.30;0.13;;;10.10;99.90;;;;;;5458700;26;20022;-78
2024/04/26 08:00:45;;;;;;;5.55;0.47;;;10.00;99.90;;;;;;5458704;26;20005;-78
2024/04/26 08:03:11;;;;;;;1.23;0.00;;;9.90;99.90;;;;;;5458495;26;20360;-78
2024/04/26 08:05:37;;;;;;;0.28;0.00;;;10.00;99.90;;;;;;5490854;26;19998;-78
2024/04/26 08:08:03;;;;;;;5.50;0.52;;;;;;;;;;5458115;26;20001;-78
2024/04/26 08:10:29;;;;;;;0.28;0.00;;;10.10;99.90;;;;;;5490196;26;19998;-78
2024/04/26 08:12:54;;;;;;;0.43;0.00;;;10.10;99.90;;;;;;5458272;26;20445;-78
2024/04/26 08:15:22;;;;;;;5.13;0.28;;;10.20;99.90;;;;;;5458687;26;19998;-78
2024/04/26 08:17:49;;;;;;;1.05;0.00;;;10.20;99.90;;;;;;5458606;26;20006;-78
2024/04/26 08:20:14;;;;;;;0.35;0.00;;;10.30;99.90;;;;;;5490719;26;20070;-78
2024/04/26 08:22:42;;;;;;;0.00;0.00;;;10.30;99.90;;;;;;5491235;26;20469;-78
2024/04/26 08:25:11;;;;;;;3.85;0.00;;;10.40;99.90;;;;;;5458702;26;20430;-78
2024/04/26 08:27:36;;;;;;;;;;;10.60;99.90;;;;;;5458493;26;19995;-78
2024/04/26 08:30:02;;;;;;;0.45;0.08;;;10.70;99.90;;;;;;5490539;26;19985;-77
2024/04/26 08:32:28;;;;;;;1.75;0.10;;;11.10;99.90;;;;;;5457553;26;19994;-76
2024/04/26 08:34:53;;;;;;;0.08;0.00;;;11.30;99.90;;;;;;5490197;26;20446;-76
2024/04/26 08:37:19;;;;;;;3.20;0.43;;;11.30;99.90;;;;;;5457996;26;19993;-76
2024/04/26 08:39:46;;;;;;;0.80;0.00;;;11.30;99.90;;;;;;5457800;26;20062;-76
2024/04/26 08:42:12;;;;;;;3.78;0.00;;;11.00;99.90;;;;;;5457641;26;20001;-76
2024/04/26 08:44:39;;;;;;;0.52;0.10;;;11.00;99.90;;;;;;5457670;26;20325;-77
2024/04/26 08:47:07;;;;;;;0.22;0.00;;;11.00;99.90;;;;;;5457115;26;20001;-77
2024/04/26 08:49:38;;;;;;;0.43;0.00;;;11.00;99.90;;;;;;5489100;26;20365;-77
2024/04/26 08:52:05;;;;;;;3.55;0.25;;;10.90;99.90;;;;;;5457199;26;19986;-76
2024/04/26 08:54:32;;;;;;;3.13;0.00;;;10.80;99.90;;;;;;5490140;26;20482;-77
2024/04/26 08:57:02;;;;;;;1.77;0.00;;;10.60;99.90;;;;;;5458180;26;19997;-77
2024/04/26 08:59:51;;;;;;;3.28;0.00;;;10.50;99.90;;;;;;5490378;26;20333;-76
2024/04/26 09:02:17;;;;;;;0.10;0.00;;;10.70;99.90;;;;;;5489868;26;19994;-76
2024/04/26 09:04:46;;;;;;;0.73;0.00;;;10.80;99.90;;;;;;5489893;26;20031;-76
2024/04/26 09:07:12;;;;;;;1.17;0.00;;;11.30;99.90;;;;;;5489521;26;19998;-76
2024/04/26 09:09:38;;;;;;;0.20;0.00;;;11.40;99.90;;;;;;5488917;26;20000;-76
2024/04/26 09:12:04;;;;;;;6.15;0.00;;;11.80;99.90;;;;;;5459518;26;20066;-77
2024/04/26 09:14:30;;;;;;;1.85;0.20;;;11.90;99.90;;;;;;5493194;26;19994;-77
2024/04/26 09:16:56;;;;;;;0.10;0.08;;;12.10;99.90;;;;;;5460886;26;19994;-77
2024/04/26 09:19:22;;;;;;;0.35;0.00;;;12.10;99.90;;;;;;5492576;26;19995;-77
2024/04/26 09:21:47;;;;;;;0.35;0.00;;;12.10;99.90;;;;;;5460665;26;19990;-76
2024/04/26 09:24:14;;;;;;;2.83;0.00;;;12.00;99.90;;;;;;5460588;26;19991;-76
2024/04/26 09:26:40;;;;;;;3.33;0.00;;;11.90;99.90;;;;;;5460379;26;19994;-76
2024/04/26 09:29:06;;;;;;;1.38;0.00;;;11.80;99.90;;;;;;5492671;26;20009;-76
2024/04/26 09:31:31;;;;;;;0.75;0.00;;;11.80;99.90;;;;;;5492428;26;20030;-77
2024/04/26 09:33:59;;;;;;;0.75;0.00;;;11.90;99.90;;;;;;5492287;26;20022;-77
2024/04/26 09:36:29;;;;;;;0.35;0.00;;;12.00;99.90;;;;;;5492784;26;20001;-77
2024/04/26 09:38:55;;;;;;;2.55;0.00;;;12.10;99.90;;;;;;5492421;26;20006;-76
2024/04/26 09:41:22;;;;;;;0.80;0.10;;;12.20;99.90;;;;;;5492167;26;20006;-77
2024/04/26 09:43:50;;;;;;;0.38;0.00;;;12.30;99.90;;;;;;5492409;26;20009;-76
2024/04/26 09:46:26;;;;;;;5.85;0.03;;;12.20;99.90;;;;;;5460120;26;20014;-76
2024/04/26 09:48:54;;;;;;;0.20;0.00;;;12.20;99.90;;;;;;5460366;26;20338;-76
2024/04/26 09:51:21;;;;;;;1.08;0.17;;;12.00;99.90;;;;;;5492304;26;20472;-76
2024/04/26 09:53:48;;;;;;;1.25;0.00;;;12.50;99.90;;;;;;5492355;26;19998;-77
2024/04/26 09:56:15;;;;;;;1.77;0.00;;;11.90;99.90;;;;;;5460154;26;19998;-76
2024/04/26 09:58:42;;;;;;;1.75;0.00;;;11.80;99.90;;;;;;5492271;26;20039;-76
2024/04/26 10:01:09;;;;;;;1.65;0.00;;;11.80;99.90;;;;;;5492588;26;19998;-76
2024/04/26 10:03:38;;;;;;;4.22;0.00;;;12.00;99.90;;;;;;5459843;26;20018;-77
2024/04/26 10:06:05;;;;;;;0.43;0.00;;;12.10;99.90;;;;;;5460159;26;19990;-77
2024/04/26 10:08:34;;;;;;;2.08;0.20;;;12.20;99.90;;;;;;5460190;26;19994;-77
2024/04/26 10:11:09;;;;;;;3.47;0.10;;;12.20;99.90;;;;;;5491696;26;20025;-76
2024/04/26 10:13:53;;;;;;;0.05;0.00;;;12.20;99.90;;;;;;5492260;26;20044;-76
2024/04/26 10:16:32;;;;;;;0.38;0.00;;;12.00;99.90;;;;;;5491895;26;20067;-76
2024/04/26 10:19:00;;;;;;;0.68;0.20;;;11.90;99.90;;;;;;5460728;26;19998;-78
2024/04/26 10:21:29;;;;;;;0.32;0.00;;;11.70;99.90;;;;;;5492312;26;20002;-78
2024/04/26 10:23:59;;;;;;;1.08;0.00;;;11.50;99.90;;;;;;5492946;26;20441;-78
2024/04/26 10:26:25;;;;;;;3.33;0.00;;;11.50;99.90;;;;;;5460547;26;19994;-78
2024/04/26 10:28:50;;;;;;;1.48;0.57;;;11.50;99.90;;;;;;5460492;26;19994;-78
2024/04/26 10:31:24;;;;;;;0.52;0.00;;;11.60;99.90;;;;;;5460327;26;20400;-78
2024/04/26 10:33:49;;;;;;;1.17;0.00;;;12.00;99.90;;;;;;5462541;26;19991;-77
2024/04/26 10:36:19;;;;;;;0.20;0.00;;;12.30;99.90;;;;;;5460301;26;20134;-78
2024/04/26 10:38:48;;;;;;;1.55;0.15;;;12.50;99.90;;;;;;5460655;26;20051;-79
2024/04/26 10:41:20;;;;;;;0.65;0.00;;;12.70;99.90;;;;;;5493071;26;20109;-79
2024/04/26 10:43:47;;;;;;;1.35;0.00;;;12.90;99.90;;;;;;5461275;26;20034;-78
2024/04/26 10:46:18;;;;;;;0.95;0.00;;;13.00;99.90;;;;;;5493394;26;20002;-77
2024/04/26 10:48:44;;;;;;;1.35;0.45;;;13.00;99.90;;;;;;5492930;26;20036;-77
2024/04/26 10:51:11;;;;;;;2.25;0.00;;;13.20;99.90;;;;;;5460077;26;19994;-77
2024/04/26 10:53:43;;;;;;;4.53;0.40;;;13.40;99.90;;;;;;5460653;26;19990;-78
2024/04/26 10:56:16;;;;;;;3.42;0.20;;;13.40;99.90;;;;;;5492177;26;19998;-77
2024/04/26 10:58:42;;;;;;;5.43;0.13;;;13.60;99.90;;;;;;5459666;26;20342;-77
2024/04/26 11:01:21;;;;;;;1.20;0.00;;;13.60;99.90;;;;;;5459682;26;19994;-77
2024/04/26 11:03:57;;;;;;;1.17;0.08;;;13.60;99.90;;;;;;5491602;26;20008;-78
2024/04/26 11:06:33;;;;;;;2.42;0.00;;;13.40;99.90;;;;;;5460115;26;19994;-77
2024/04/26 11:09:25;;;;;;;0.70;0.35;;;13.00;99.90;;;;;;5492381;26;20399;-78
2024/04/26 11:11:55;;;;;;;0.88;0.00;;;12.80;99.90;;;;;;5486949;26;20059;-77
2024/04/26 11:14:22;;;;;;;2.15;0.22;;;12.80;99.90;;;;;;5459884;26;20066;-77
2024/04/26 11:16:49;;;;;;;1.65;0.15;;;13.00;99.90;;;;;;5491434;26;20022;-77
2024/04/26 11:19:15;;;;;;;1.25;0.00;;;13.00;99.90;;;;;;5459549;26;19994;-77
2024/04/26 11:21:41;;;;;;;1.65;0.10;;;13.30;99.90;;;;;;5460672;26;19994;-77
2024/04/26 11:24:09;;;;;;;1.85;0.17;;;13.30;99.90;;;;;;5460333;26;19998;-77
2024/04/26 11:26:38;;;;;;;1.85;0.00;;;13.20;99.90;;;;;;5459040;26;20342;-77
2024/04/26 11:29:04;;;;;;;0.30;0.00;;;12.90;99.90;;;;;;5491456;26;20002;-77
2024/04/26 11:31:29;;;;;;;0.98;0.00;;;12.70;99.90;;;;;;5490864;26;19998;-77
2024/04/26 11:33:55;;;;;;;3.20;0.03;;;12.80;99.90;;;;;;5458124;26;19994;-77
2024/04/26 11:36:21;;;;;;;0.28;0.00;;;13.20;99.90;;;;;;5490952;26;20071;-77
2024/04/26 11:38:47;;;;;;;0.47;0.00;;;13.90;99.90;;;;;;5458225;26;20006;-77
2024/04/26 11:41:13;;;;;;;0.90;0.00;;;13.90;99.90;;;;;;5490536;26;20043;-77
2024/04/26 11:43:39;;;;;;;0.68;0.00;;;13.90;99.90;;;;;;5490729;26;19998;-77
2024/04/26 11:46:07;;;;;;;0.70;0.00;;;13.60;99.90;;;;;;5490908;26;20006;-77
2024/04/26 11:48:33;;;;;;;;;;;13.50;99.90;;;;;;5490922;26;20315;-77
2024/04/26 11:50:59;;;;;;;1.55;0.00;;;13.40;99.90;;;;;;5458279;26;19954;-77
2024/04/26 11:53:25;;;;;;;0.30;0.00;;;13.30;99.90;;;;;;5490300;26;19994;-77
2024/04/26 11:55:52;;;;;;;1.00;0.00;;;13.20;99.90;;;;;;5490724;26;20333;-77
2024/04/26 11:58:17;;;;;;;0.52;0.00;;;13.60;99.90;;;;;;5458327;26;20063;-77
2024/04/26 12:00:43;;;;;;;0.90;0.03;;;14.00;99.90;;;;;;5458110;26;20377;-77
2024/04/26 12:03:09;;;;;;;0.63;0.00;;;14.70;99.90;;;;;;5457881;26;19990;-77
2024/04/26 12:05:36;;;;;;;2.28;0.00;;;15.10;99.90;;;;;;5489905;26;20001;-77
2024/04/26 12:08:05;;;;;;;3.80;0.00;;;15.20;99.90;;;;;;5458256;26;20346;-77
2024/04/26 12:10:32;;;;;;;0.43;0.00;;;15.40;99.90;;;;;;5490556;26;20005;-77
2024/04/26 12:12:58;;;;;;;1.55;0.00;;;15.90;99.90;;;;;;5457759;26;20445;-77
2024/04/26 12:15:25;;;;;;;0.55;0.00;;;16.10;98.70;;;;;;5490014;26;19998;-77
2024/04/26 12:17:52;;;;;;;2.75;0.05;;;15.80;99.90;;;;;;5489742;26;20006;-77
2024/04/26 12:20:17;;;;;;;1.13;0.15;;;15.80;99.90;;;;;;5458138;26;20032;-78
2024/04/26 12:22:43;;;;;;;0.00;0.00;;;16.20;99.90;;;;;;5458023;26;20461;-78
2024/04/26 12:25:13;;;;;;;0.40;0.00;;;16.70;96.30;;;;;;5458265;26;19998;-78
2024/04/26 12:27:39;;;;;;;1.65;0.40;;;16.70;96.30;;;;;;5457858;26;19994;-78
2024/04/26 12:30:08;;;;;;;0.13;0.00;;;16.80;98.60;;;;;;5457547;26;20077;-78
2024/04/26 12:32:34;;;;;;;0.55;0.00;;;17.20;99.20;;;;;;5491382;26;20005;-78
2024/04/26 12:35:00;;;;;;;0.68;0.00;;;17.30;98.00;;;;;;5461236;26;19998;-78
2024/04/26 12:37:27;;;;;;;0.00;0.00;;;17.30;96.80;;;;;;5460355;26;20333;-78
2024/04/26 12:39:53;;;;;;;0.10;0.00;;;17.30;97.00;;;;;;5459951;26;19990;-78
2024/04/26 12:42:19;;;;;;;2.60;0.30;;;16.80;97.30;;;;;;5460020;26;20001;-78
2024/04/26 12:44:45;;;;;;;0.10;0.00;;;16.40;97.90;;;;;;5460135;26;20117;-78
2024/04/26 12:47:17;;;;;;;3.40;0.00;;;15.80;97.90;;;;;;5494556;26;20338;-78
2024/04/26 12:49:43;;;;;;;0.52;0.00;;;;;;;;;;5495365;26;20018;-78